createdAt,value
2022-10-18T00:02:01.249Z,60189.09
2022-10-18T00:03:04.534Z,60213.18
2022-10-18T00:04:07.826Z,60412.96
2022-10-18T00:05:18.463Z,60418.98
2022-10-18T00:06:21.734Z,60542.46
2022-10-18T00:07:26.399Z,60562.54
2022-10-18T00:08:29.952Z,60570.57
2022-10-18T00:09:33.026Z,60557.52
2022-10-18T00:10:36.010Z,60646.88
2022-10-18T00:11:39.493Z,60389.87
2022-10-18T00:12:42.340Z,60286.47
2022-10-18T00:13:45.233Z,60020.45
2022-10-18T00:14:48.528Z,59751.43
2022-10-18T00:15:51.501Z,59299.77
2022-10-18T00:16:54.370Z,58834.11
2022-10-18T00:17:57.655Z,58904.36
2022-10-18T00:19:05.653Z,58463.83
2022-10-18T00:20:08.442Z,57949.11
2022-10-18T00:21:12.044Z,57672.21
2022-10-18T00:22:14.790Z,57583.93
2022-10-18T00:23:18.589Z,56714.25
2022-10-18T00:24:21.402Z,56523.69
2022-10-18T00:25:24.255Z,56206.78
2022-10-18T00:26:27.419Z,56428.41
2022-10-18T00:27:30.911Z,56726.29
2022-10-18T00:28:36.513Z,56810.54
2022-10-18T00:29:39.838Z,56913.85
2022-10-18T00:31:51.530Z,57288.00
2022-10-18T00:32:54.393Z,57482.61
2022-10-18T00:34:04.575Z,57644.12
2022-10-18T00:35:07.514Z,57791.60
2022-10-18T00:36:10.809Z,58049.44
2022-10-18T00:37:13.984Z,57910.99
2022-10-18T00:38:41.522Z,57017.16
2022-10-18T00:39:44.772Z,57752.47
2022-10-18T00:40:47.821Z,57788.59
2022-10-18T00:41:51.194Z,57711.34
2022-10-18T00:42:54.384Z,57564.87
2022-10-18T00:43:57.753Z,56916.86
2022-10-18T00:45:00.732Z,56858.68
2022-10-18T00:46:03.707Z,57054.28
2022-10-18T00:47:07.195Z,57182.67
2022-10-18T00:48:10.069Z,57088.38
2022-10-18T00:49:13.670Z,56725.29
2022-10-18T00:50:17.051Z,56610.95
2022-10-18T00:51:20.027Z,56133.57
2022-10-18T00:52:22.999Z,55785.60
2022-10-18T00:53:25.972Z,55158.93
2022-10-18T00:54:29.366Z,54848.14
2022-10-18T00:55:32.337Z,54340.91
2022-10-18T00:56:35.225Z,53944.99
2022-10-18T00:57:38.603Z,53620.27
2022-10-18T00:58:41.813Z,53487.98
2022-10-18T00:59:45.062Z,53497.00
2022-10-18T01:00:48.155Z,53535.08
2022-10-18T01:01:51.237Z,53528.06
2022-10-18T01:02:54.612Z,53531.07
2022-10-18T01:03:57.591Z,53567.15
2022-10-18T01:05:01.079Z,53548.11
2022-10-18T01:06:03.858Z,53517.04
2022-10-18T01:07:07.030Z,53458.91
2022-10-18T01:08:10.128Z,53423.84
2022-10-18T01:09:13.222Z,53432.86
2022-10-18T01:10:16.271Z,53502.01
2022-10-18T01:11:19.147Z,53546.10
2022-10-18T01:12:22.122Z,53595.21
2022-10-18T01:13:25.915Z,53577.17
2022-10-18T01:14:29.613Z,53633.29
2022-10-18T01:15:32.682Z,53619.26
2022-10-18T01:16:35.886Z,53575.17
2022-10-18T01:17:39.471Z,53659.35
2022-10-18T01:18:42.451Z,53646.32
2022-10-18T01:19:45.627Z,53716.48
2022-10-18T01:20:49.528Z,53705.45
2022-10-18T01:21:52.806Z,53679.39
2022-10-18T01:22:56.021Z,53642.31
2022-10-18T01:23:58.966Z,53516.04
2022-10-18T01:26:06.879Z,53430.85
2022-10-18T01:27:10.154Z,53429.85
2022-10-18T01:28:13.326Z,53338.66
2022-10-18T01:29:16.508Z,53380.75
2022-10-18T01:30:19.593Z,53306.59
2022-10-18T01:31:22.471Z,53322.62
2022-10-18T01:32:26.683Z,53399.79
2022-10-18T01:33:29.655Z,53374.73
2022-10-18T01:34:32.632Z,53368.72
2022-10-18T01:35:35.501Z,53444.88
2022-10-18T01:36:38.993Z,53430.85
2022-10-18T01:37:42.173Z,53478.96
2022-10-18T01:38:45.664Z,53429.85
2022-10-18T01:39:48.965Z,53452.90
2022-10-18T01:40:52.134Z,53493.99
2022-10-18T01:41:55.403Z,53555.12
2022-10-18T01:42:58.678Z,53638.30
2022-10-18T01:44:01.972Z,53623.27
2022-10-18T01:45:05.484Z,53609.24
2022-10-18T01:46:08.648Z,53586.19
2022-10-18T01:47:12.058Z,53654.34
2022-10-18T01:48:15.228Z,53684.41
2022-10-18T01:49:18.298Z,53680.40
2022-10-18T01:50:21.486Z,53679.39
2022-10-18T01:51:24.360Z,53690.42
2022-10-18T01:52:27.498Z,53751.55
2022-10-18T01:53:31.326Z,53805.68
2022-10-18T01:54:34.303Z,53823.71
2022-10-18T01:55:37.903Z,53921.94
2022-10-18T01:56:41.289Z,54032.19
2022-10-18T01:57:44.664Z,54119.39
2022-10-18T01:58:47.862Z,54261.72
2022-10-18T01:59:51.458Z,54377.00
2022-10-18T02:00:54.940Z,54556.43
2022-10-18T02:01:59.955Z,54750.90
2022-10-18T02:03:03.047Z,54948.40
2022-10-18T02:04:06.122Z,55281.25
2022-10-18T02:05:09.493Z,55654.24
2022-10-18T02:06:12.693Z,56074.40
2022-10-18T02:07:16.173Z,56629.00
2022-10-18T02:08:24.110Z,57224.80
2022-10-18T02:09:25.103Z,57726.39
2022-10-18T02:10:28.788Z,58178.87
2022-10-18T02:11:31.670Z,58411.66
2022-10-18T02:12:34.851Z,58411.66
2022-10-18T02:13:38.645Z,58502.97
2022-10-18T02:14:41.734Z,58653.48
2022-10-18T02:15:45.225Z,58629.40
2022-10-18T02:16:48.926Z,58703.66
2022-10-18T02:17:52.100Z,58734.77
2022-10-18T02:18:55.680Z,58841.14
2022-10-18T02:19:59.175Z,58926.44
2022-10-18T02:21:03.178Z,58914.39
2022-10-18T02:22:06.359Z,58893.32
2022-10-18T02:23:09.955Z,59115.11
2022-10-18T02:24:13.227Z,59424.23
2022-10-18T02:25:16.413Z,59742.40
2022-10-18T02:26:19.790Z,60035.50
2022-10-18T02:27:22.884Z,60319.59
2022-10-18T02:28:30.778Z,60610.73
2022-10-18T02:29:33.641Z,60697.07
2022-10-18T02:30:36.724Z,61018.36
2022-10-18T02:31:39.690Z,61237.26
2022-10-18T02:32:43.191Z,61434.07
2022-10-18T02:33:46.274Z,61490.30
2022-10-18T02:34:49.556Z,61515.41
2022-10-18T02:35:52.648Z,61577.67
2022-10-18T02:37:00.895Z,61604.78
2022-10-18T02:38:04.051Z,61631.89
2022-10-18T02:39:07.192Z,61656.00
2022-10-18T02:40:12.267Z,61645.96
2022-10-18T02:41:16.345Z,61627.88
2022-10-18T02:42:28.219Z,61675.08
2022-10-18T02:43:31.097Z,61675.08
2022-10-18T02:44:34.062Z,61694.16
2022-10-18T02:45:39.943Z,61699.18
2022-10-18T02:46:43.394Z,61714.25
2022-10-18T02:49:08.168Z,61771.49
2022-10-18T02:50:11.265Z,61805.63
2022-10-18T02:51:14.353Z,61719.27
2022-10-18T02:52:17.938Z,61648.97
2022-10-18T02:53:21.023Z,61593.74
2022-10-18T02:54:24.104Z,61525.45
2022-10-18T02:56:34.355Z,61476.25
2022-10-18T02:57:47.792Z,61481.27
2022-10-18T02:58:53.731Z,61463.19
2022-10-18T02:59:57.414Z,61534.49
2022-10-18T03:01:00.695Z,61514.40
2022-10-18T03:02:06.135Z,61502.36
2022-10-18T03:03:15.384Z,61488.30
2022-10-18T03:04:21.660Z,61478.25
2022-10-18T03:05:24.890Z,61542.52
2022-10-18T03:06:35.137Z,61515.41
2022-10-18T03:07:39.147Z,61535.49
2022-10-18T03:08:42.431Z,61573.65
2022-10-18T03:09:45.974Z,61579.68
2022-10-18T03:10:49.613Z,61559.59
2022-10-18T03:11:55.146Z,61552.56
2022-10-18T03:12:58.231Z,61582.69
2022-10-18T03:14:01.512Z,61586.71
2022-10-18T03:15:07.669Z,61610.81
2022-10-18T03:16:11.062Z,61615.83
2022-10-18T03:17:14.992Z,61650.98
2022-10-18T03:18:18.438Z,61589.72
2022-10-18T03:19:21.539Z,61622.86
2022-10-18T03:20:24.905Z,61675.08
2022-10-18T03:21:27.581Z,61662.02
2022-10-18T03:22:30.660Z,61645.96
2022-10-18T03:23:36.465Z,61676.08
2022-10-18T03:24:51.828Z,61637.92
2022-10-18T03:25:54.937Z,61731.32
2022-10-18T03:26:58.147Z,61763.45
2022-10-18T03:28:01.106Z,61735.33
2022-10-18T03:29:04.758Z,61771.49
2022-10-18T03:30:07.893Z,61758.43
2022-10-18T03:31:10.860Z,61756.42
2022-10-18T03:32:13.833Z,61751.40
2022-10-18T03:33:16.807Z,61735.33
2022-10-18T03:34:37.815Z,61723.28
2022-10-18T03:35:40.986Z,61761.45
2022-10-18T03:36:43.859Z,61805.63
2022-10-18T03:37:47.045Z,61752.41
2022-10-18T03:38:51.760Z,61754.41
2022-10-18T03:39:55.259Z,61727.30
2022-10-18T03:40:58.020Z,61744.37
2022-10-18T03:42:01.714Z,61715.25
2022-10-18T03:43:05.214Z,61639.93
2022-10-18T03:44:08.294Z,61586.71
2022-10-18T03:45:11.381Z,61535.49
2022-10-18T03:46:14.350Z,61412.98
2022-10-18T03:47:17.323Z,61307.55
2022-10-18T03:48:20.396Z,61143.87
2022-10-18T03:49:23.444Z,60915.95
2022-10-18T03:50:26.171Z,60795.46
2022-10-18T03:51:37.422Z,60639.85
2022-10-18T03:52:40.709Z,60511.34
2022-10-18T03:53:43.995Z,60409.95
2022-10-18T03:54:46.964Z,60268.39
2022-10-18T03:55:49.847Z,60088.71
2022-10-18T03:56:52.827Z,60006.39
2022-10-18T03:57:55.898Z,59869.88
2022-10-18T03:58:59.083Z,59762.48
2022-10-18T04:00:02.157Z,59687.20
2022-10-18T04:01:05.246Z,59648.05
2022-10-18T04:02:08.629Z,59601.88
2022-10-18T04:03:11.508Z,59560.73
2022-10-18T04:04:14.698Z,59560.73
2022-10-18T04:05:17.557Z,59541.66
2022-10-18T04:06:20.640Z,59621.95
2022-10-18T04:07:23.809Z,59697.23
2022-10-18T04:08:27.311Z,59734.37
2022-10-18T04:09:30.392Z,59810.66
2022-10-18T04:10:33.469Z,59818.68
2022-10-18T04:11:37.621Z,59872.89
2022-10-18T04:12:40.555Z,59943.15
2022-10-18T04:13:43.332Z,59997.36
2022-10-18T04:14:46.504Z,60037.51
2022-10-18T04:15:49.484Z,60080.68
2022-10-18T04:16:52.146Z,60060.60
2022-10-18T04:17:55.228Z,60066.62
2022-10-18T04:18:58.009Z,60041.53
2022-10-18T04:20:01.090Z,60050.56
2022-10-18T04:21:04.163Z,60172.03
2022-10-18T04:22:07.343Z,60301.53
2022-10-18T04:23:10.621Z,60330.64
2022-10-18T04:24:13.498Z,60470.18
2022-10-18T04:25:16.480Z,60541.46
2022-10-18T04:26:19.380Z,60480.22
2022-10-18T04:27:22.341Z,60464.16
2022-10-18T04:28:25.130Z,60473.19
2022-10-18T04:29:27.975Z,60492.27
2022-10-18T04:30:30.953Z,60501.30
2022-10-18T04:31:33.926Z,60486.25
2022-10-18T04:32:37.119Z,60488.25
2022-10-18T04:33:40.092Z,60599.69
2022-10-18T04:35:46.359Z,60850.69
2022-10-18T04:36:49.534Z,60961.13
2022-10-18T04:37:52.817Z,61032.42
2022-10-18T04:38:56.307Z,61197.09
2022-10-18T04:39:59.543Z,61199.10
2022-10-18T04:41:03.183Z,61267.38
2022-10-18T04:42:06.672Z,61185.04
2022-10-18T04:43:09.747Z,61210.14
2022-10-18T04:44:13.040Z,61158.94
2022-10-18T04:45:16.015Z,61146.89
2022-10-18T04:46:19.098Z,61088.65
2022-10-18T04:47:22.171Z,61064.55
2022-10-18T04:48:26.065Z,61048.48
2022-10-18T04:49:28.953Z,61012.34
2022-10-18T04:50:33.877Z,60936.03
2022-10-18T04:51:36.715Z,60902.90
2022-10-18T04:52:39.698Z,60909.93
2022-10-18T04:53:43.215Z,60801.49
2022-10-18T04:54:46.414Z,60868.76
2022-10-18T04:55:50.392Z,60821.57
2022-10-18T04:56:53.584Z,60899.89
2022-10-18T04:57:56.963Z,60940.05
2022-10-18T04:59:00.343Z,60912.94
2022-10-18T05:00:03.461Z,60879.80
2022-10-18T05:01:06.390Z,60861.73
2022-10-18T05:02:09.525Z,60863.74
2022-10-18T05:03:14.834Z,60895.87
2022-10-18T05:04:18.101Z,60847.68
2022-10-18T05:05:27.017Z,60873.78
2022-10-18T05:06:29.277Z,60788.44
2022-10-18T05:07:32.689Z,60745.27
2022-10-18T05:08:35.953Z,60628.80
2022-10-18T05:09:39.029Z,60534.43
2022-10-18T05:10:42.191Z,60463.15
2022-10-18T05:11:45.389Z,60428.02
2022-10-18T05:12:48.782Z,60462.15
2022-10-18T05:13:52.775Z,60441.07
2022-10-18T05:14:56.819Z,60393.88
2022-10-18T05:16:00.331Z,60343.69
2022-10-18T05:17:03.341Z,60276.43
2022-10-18T05:18:06.230Z,60205.15
2022-10-18T05:19:09.410Z,60225.23
2022-10-18T05:20:15.829Z,60127.86
2022-10-18T05:21:17.305Z,60001.37
2022-10-18T05:22:20.283Z,59817.68
2022-10-18T05:23:23.254Z,59566.75
2022-10-18T05:24:27.734Z,59273.68
2022-10-18T05:25:30.955Z,58802.00
2022-10-18T05:26:33.931Z,58213.99
2022-10-18T05:27:37.123Z,57768.52
2022-10-18T05:28:41.159Z,57116.47
2022-10-18T05:29:44.407Z,56504.63
2022-10-18T05:30:47.526Z,55694.35
2022-10-18T05:31:50.759Z,55433.65
2022-10-18T05:32:53.836Z,55343.41
2022-10-18T05:33:57.126Z,55259.20
2022-10-18T05:34:59.992Z,55206.05
2022-10-18T05:36:04.220Z,55143.89
2022-10-18T05:37:10.454Z,55127.86
2022-10-18T05:38:13.448Z,55083.74
2022-10-18T05:39:16.310Z,55038.62
2022-10-18T05:40:19.296Z,54994.52
2022-10-18T05:41:22.473Z,54958.42
2022-10-18T05:42:25.952Z,54943.39
2022-10-18T05:43:28.942Z,54852.16
2022-10-18T05:44:32.629Z,54824.09
2022-10-18T05:45:35.503Z,54806.04
2022-10-18T05:46:38.482Z,54765.94
2022-10-18T05:47:41.152Z,54697.77
2022-10-18T05:48:44.432Z,54651.66
2022-10-18T05:49:48.331Z,54636.62
2022-10-18T05:50:51.416Z,54647.65
2022-10-18T05:51:55.107Z,54611.56
2022-10-18T05:53:06.929Z,54587.50
2022-10-18T05:54:03.103Z,54577.48
2022-10-18T05:55:06.007Z,54583.49
2022-10-18T05:56:08.772Z,54571.46
2022-10-18T05:57:11.841Z,54549.41
2022-10-18T05:58:15.228Z,54519.34
2022-10-18T05:59:18.190Z,54479.24
2022-10-18T06:00:21.612Z,54478.24
2022-10-18T06:01:24.957Z,54447.16
2022-10-18T06:02:28.382Z,54464.20
2022-10-18T06:03:31.454Z,54454.18
2022-10-18T06:04:34.501Z,54469.21
2022-10-18T06:06:40.687Z,54411.07
2022-10-18T06:07:44.417Z,54439.14
2022-10-18T06:08:47.455Z,54460.20
2022-10-18T06:09:50.214Z,54464.20
2022-10-18T06:10:53.512Z,54437.14
2022-10-18T06:11:56.586Z,54455.18
2022-10-18T06:13:00.184Z,54426.11
2022-10-18T06:14:03.476Z,54456.18
2022-10-18T06:15:06.756Z,54458.19
2022-10-18T06:16:09.615Z,54451.17
2022-10-18T06:17:13.422Z,54470.22
2022-10-18T06:18:16.908Z,54456.18
2022-10-18T06:19:19.804Z,54471.22
2022-10-18T06:20:24.196Z,54477.23
2022-10-18T06:21:27.270Z,54463.20
2022-10-18T06:22:30.355Z,54481.25
2022-10-18T06:23:33.534Z,54488.26
2022-10-18T06:24:36.697Z,54459.19
2022-10-18T06:25:39.899Z,54467.21
2022-10-18T06:26:42.684Z,54448.16
2022-10-18T06:27:45.750Z,54467.21
2022-10-18T06:28:48.667Z,54449.17
2022-10-18T06:29:52.218Z,54481.25
2022-10-18T06:30:54.879Z,54462.20
2022-10-18T06:31:57.868Z,54503.30
2022-10-18T06:33:00.917Z,54517.33
2022-10-18T06:34:03.821Z,54461.20
2022-10-18T06:35:07.570Z,54509.31
2022-10-18T06:36:10.793Z,54517.33
2022-10-18T06:37:14.076Z,54505.30
2022-10-18T06:38:16.748Z,54483.25
2022-10-18T06:39:20.328Z,54520.34
2022-10-18T06:40:24.075Z,54477.23
2022-10-18T06:41:29.309Z,54489.27
2022-10-18T06:42:33.368Z,54507.31
2022-10-18T06:43:36.951Z,54469.21
2022-10-18T06:44:39.891Z,54528.36
2022-10-18T06:45:43.367Z,54523.35
2022-10-18T06:46:47.129Z,54505.30
2022-10-18T06:47:49.996Z,54516.33
2022-10-18T06:48:52.771Z,54517.33
2022-10-18T06:49:56.144Z,54503.30
2022-10-18T06:50:58.980Z,54489.27
2022-10-18T06:52:02.518Z,54511.32
2022-10-18T06:53:05.151Z,54491.27
2022-10-18T06:54:17.262Z,54511.32
2022-10-18T06:55:13.618Z,54502.29
2022-10-18T06:56:16.773Z,54483.25
2022-10-18T06:57:19.856Z,54479.24
2022-10-18T06:58:22.942Z,54504.30
2022-10-18T06:59:28.973Z,54496.28
2022-10-18T07:00:31.442Z,54498.29
2022-10-18T07:01:34.594Z,54521.34
2022-10-18T07:02:37.408Z,54491.27
2022-10-18T07:03:40.898Z,54512.32
2022-10-18T07:04:44.405Z,54517.33
2022-10-18T07:05:47.348Z,54473.23
2022-10-18T07:06:50.641Z,54464.20
2022-10-18T07:07:56.402Z,54483.25
2022-10-18T07:08:58.738Z,54517.33
2022-10-18T07:10:01.620Z,54540.39
2022-10-18T07:11:05.325Z,54544.40
2022-10-18T07:12:08.291Z,54496.28
2022-10-18T07:13:31.605Z,54519.34
2022-10-18T07:14:16.824Z,54520.34
2022-10-18T07:15:19.562Z,54489.27
2022-10-18T07:16:22.774Z,54517.33
2022-10-18T07:17:29.187Z,54519.34
2022-10-18T07:18:30.569Z,54538.38
2022-10-18T07:19:33.431Z,54501.29
2022-10-18T07:20:36.210Z,54524.35
2022-10-18T07:21:39.779Z,54516.33
2022-10-18T07:22:42.562Z,54511.32
2022-10-18T07:23:45.544Z,54527.36
2022-10-18T07:24:48.413Z,54513.32
2022-10-18T07:25:52.023Z,54506.30
2022-10-18T07:26:55.505Z,54507.31
2022-10-18T07:27:58.781Z,54529.36
2022-10-18T07:29:01.981Z,54525.35
2022-10-18T07:30:05.353Z,54536.38
2022-10-18T07:31:08.143Z,54505.30
2022-10-18T07:32:10.891Z,54498.29
2022-10-18T07:33:13.581Z,54526.36
2022-10-18T07:34:16.332Z,54514.32
2022-10-18T07:35:19.635Z,54515.33
2022-10-18T07:36:23.231Z,54524.35
2022-10-18T07:37:27.959Z,54491.27
2022-10-18T07:38:31.124Z,54495.28
2022-10-18T07:39:34.040Z,54488.26
2022-10-18T07:40:36.866Z,54483.25
2022-10-18T07:41:39.784Z,54466.21
2022-10-18T07:42:43.133Z,54489.27
2022-10-18T07:43:47.342Z,54453.18
2022-10-18T07:44:51.047Z,54479.24
2022-10-18T07:45:53.592Z,54437.14
2022-10-18T07:46:57.016Z,54450.17
2022-10-18T07:48:00.258Z,54415.09
2022-10-18T07:49:03.268Z,54418.09
2022-10-18T07:50:06.226Z,54423.11
2022-10-18T07:51:09.706Z,54389.02
2022-10-18T07:52:13.093Z,54364.96
2022-10-18T07:53:16.211Z,54326.87
2022-10-18T07:54:19.972Z,54349.93
2022-10-18T07:55:23.464Z,54385.02
2022-10-18T07:56:27.155Z,54344.92
2022-10-18T07:57:30.323Z,54348.93
2022-10-18T07:58:33.611Z,54338.91
2022-10-18T07:59:37.315Z,54353.94
2022-10-18T08:00:40.292Z,54348.93
2022-10-18T08:01:43.228Z,54327.88
2022-10-18T08:02:46.353Z,54328.88
2022-10-18T08:03:49.635Z,54284.78
2022-10-18T08:04:52.741Z,54324.87
2022-10-18T08:05:55.383Z,54299.81
2022-10-18T08:06:58.267Z,54284.78
2022-10-18T08:08:04.339Z,54290.79
2022-10-18T08:09:06.755Z,54291.79
2022-10-18T08:10:09.748Z,54290.79
2022-10-18T08:11:12.513Z,54283.77
2022-10-18T08:12:16.219Z,54284.78
2022-10-18T08:13:19.192Z,54264.73
2022-10-18T08:14:22.526Z,54246.69
2022-10-18T08:15:25.148Z,54212.61
2022-10-18T08:16:28.300Z,54268.74
2022-10-18T08:17:31.579Z,54249.70
2022-10-18T08:18:34.806Z,54225.64
2022-10-18T08:19:37.902Z,54204.59
2022-10-18T08:20:40.841Z,54183.54
2022-10-18T08:21:43.921Z,54168.50
2022-10-18T08:22:48.349Z,54188.55
2022-10-18T08:23:51.208Z,54192.56
2022-10-18T08:24:54.415Z,54174.52
2022-10-18T08:25:57.988Z,54170.51
2022-10-18T08:27:01.059Z,54178.53
2022-10-18T08:28:04.654Z,54150.46
2022-10-18T08:29:22.968Z,54115.38
2022-10-18T08:30:12.673Z,54145.45
2022-10-18T08:31:15.862Z,54135.43
2022-10-18T08:32:19.334Z,54112.37
2022-10-18T08:33:22.540Z,54130.41
2022-10-18T08:34:25.552Z,54132.42
2022-10-18T08:35:30.300Z,54108.36
2022-10-18T08:36:33.385Z,54108.36
2022-10-18T08:37:36.384Z,54102.35
2022-10-18T08:38:39.142Z,54112.37
2022-10-18T08:39:42.111Z,54104.36
2022-10-18T08:40:45.505Z,54102.35
2022-10-18T08:41:48.783Z,54055.24
2022-10-18T08:42:51.564Z,54078.29
2022-10-18T08:43:55.451Z,54070.28
2022-10-18T08:44:58.951Z,54086.31
2022-10-18T08:46:03.453Z,54076.29
2022-10-18T08:47:06.429Z,54073.29
2022-10-18T08:48:09.712Z,54008.13
2022-10-18T08:49:13.113Z,54031.19
2022-10-18T08:50:16.221Z,54058.25
2022-10-18T08:51:19.696Z,54032.19
2022-10-18T08:52:22.439Z,54036.20
2022-10-18T08:53:25.221Z,53990.09
2022-10-18T08:54:28.413Z,54004.12
2022-10-18T08:55:31.369Z,54013.14
2022-10-18T08:56:34.768Z,53997.11
2022-10-18T08:57:37.546Z,54040.21
2022-10-18T08:58:40.730Z,53978.06
2022-10-18T08:59:43.497Z,53911.91
2022-10-18T09:00:46.432Z,53979.07
2022-10-18T09:01:49.929Z,53975.06
2022-10-18T09:02:52.972Z,54004.12
2022-10-18T09:03:56.021Z,54006.13
2022-10-18T09:04:58.790Z,53966.04
2022-10-18T09:06:01.986Z,53978.06
2022-10-18T09:07:05.568Z,53952.00
2022-10-18T09:08:08.582Z,53972.05
2022-10-18T09:09:12.144Z,53984.08
2022-10-18T09:10:15.001Z,53948.00
2022-10-18T09:11:19.001Z,53950.00
2022-10-18T09:12:22.495Z,53964.04
2022-10-18T09:13:25.585Z,53937.97
2022-10-18T09:14:28.752Z,53928.95
2022-10-18T09:15:31.632Z,53935.97
2022-10-18T09:16:34.806Z,53889.86
2022-10-18T09:17:37.780Z,53901.89
2022-10-18T09:18:40.966Z,53883.85
2022-10-18T09:19:44.061Z,53920.93
2022-10-18T09:20:46.829Z,53865.81
2022-10-18T09:21:50.596Z,53893.87
2022-10-18T09:22:54.091Z,53895.88
2022-10-18T09:23:57.878Z,53859.80
2022-10-18T09:25:01.801Z,53865.81
2022-10-18T09:26:05.379Z,53851.78
2022-10-18T09:27:08.869Z,53841.75
2022-10-18T09:28:12.460Z,53823.71
2022-10-18T09:29:16.091Z,53837.75
2022-10-18T09:30:19.855Z,53809.68
2022-10-18T09:31:23.336Z,53829.73
2022-10-18T09:32:26.928Z,53811.69
2022-10-18T09:33:30.740Z,53789.64
2022-10-18T09:34:34.014Z,53822.71
2022-10-18T09:35:37.495Z,53795.65
2022-10-18T09:36:40.986Z,53807.68
2022-10-18T09:37:44.579Z,53795.65
2022-10-18T09:38:48.267Z,53778.61
2022-10-18T09:39:52.089Z,53789.64
2022-10-18T09:40:55.660Z,53773.60
2022-10-18T09:41:59.240Z,53790.64
2022-10-18T09:43:03.256Z,53769.59
2022-10-18T09:44:07.471Z,53769.59
2022-10-18T09:45:11.254Z,53778.61
2022-10-18T09:46:14.630Z,53741.53
2022-10-18T09:47:20.217Z,53747.55
2022-10-18T09:48:23.864Z,53756.57
2022-10-18T09:49:27.357Z,53720.48
2022-10-18T09:50:30.955Z,53763.58
2022-10-18T09:51:34.544Z,53723.49
2022-10-18T09:52:37.760Z,53787.64
2022-10-18T09:53:41.443Z,53705.45
2022-10-18T09:54:45.117Z,53736.52
2022-10-18T09:55:48.298Z,53707.46
2022-10-18T09:56:51.842Z,53743.54
2022-10-18T09:57:55.337Z,53721.49
2022-10-18T09:58:58.560Z,53712.47
2022-10-18T10:00:03.068Z,53729.50
2022-10-18T10:01:06.669Z,53705.45
2022-10-18T10:02:10.307Z,53691.42
2022-10-18T10:03:13.942Z,53701.44
2022-10-18T10:04:17.433Z,53668.37
2022-10-18T10:05:21.334Z,53712.47
2022-10-18T10:06:24.932Z,53711.46
2022-10-18T10:07:31.125Z,53691.42
2022-10-18T10:08:33.533Z,53695.43
2022-10-18T10:09:37.130Z,53725.50
2022-10-18T10:10:40.930Z,53684.41
2022-10-18T10:11:44.625Z,53667.37
2022-10-18T10:12:48.451Z,53684.41
2022-10-18T10:13:51.920Z,53677.39
2022-10-18T10:14:55.193Z,53694.43
2022-10-18T10:15:59.094Z,53674.38
2022-10-18T10:17:02.909Z,53659.35
2022-10-18T10:18:07.405Z,53675.39
2022-10-18T10:19:11.214Z,53691.42
2022-10-18T10:20:15.317Z,53679.39
2022-10-18T10:21:19.611Z,53659.35
2022-10-18T10:22:23.203Z,53650.33
2022-10-18T10:23:26.896Z,53676.39
2022-10-18T10:24:31.328Z,53645.32
2022-10-18T10:25:34.899Z,53649.33
2022-10-18T10:26:38.491Z,53651.33
2022-10-18T10:27:42.083Z,53672.38
2022-10-18T10:28:45.389Z,53643.31
2022-10-18T10:29:48.552Z,53651.33
2022-10-18T10:30:52.235Z,53643.31
2022-10-18T10:31:56.229Z,53673.38
2022-10-18T10:32:59.742Z,53647.32
2022-10-18T10:34:03.219Z,53676.39
2022-10-18T10:35:10.051Z,53622.27
2022-10-18T10:36:12.492Z,53661.36
2022-10-18T10:37:17.264Z,53639.30
2022-10-18T10:38:21.162Z,53649.33
2022-10-18T10:39:24.683Z,53663.36
2022-10-18T10:40:29.125Z,53648.32
2022-10-18T10:42:35.333Z,53639.30
2022-10-18T10:43:40.362Z,53633.29
2022-10-18T10:44:43.945Z,53647.32
2022-10-18T10:45:47.545Z,53682.40
2022-10-18T10:46:51.452Z,53617.26
2022-10-18T10:47:55.035Z,53634.29
2022-10-18T10:49:21.076Z,53657.34
2022-10-18T10:50:04.574Z,53635.30
2022-10-18T10:51:08.055Z,53646.32
2022-10-18T10:52:26.326Z,53589.20
2022-10-18T10:53:15.949Z,53599.22
2022-10-18T10:54:19.447Z,53616.25
2022-10-18T10:55:34.789Z,53608.24
2022-10-18T10:56:28.667Z,53630.29
2022-10-18T10:57:32.472Z,53643.31
2022-10-18T10:58:37.111Z,53613.25
2022-10-18T11:00:45.634Z,53622.27
2022-10-18T11:01:49.100Z,53645.32
2022-10-18T11:03:00.659Z,53618.26
2022-10-18T11:03:57.761Z,53637.30
2022-10-18T11:05:00.887Z,53635.30
2022-10-18T11:06:04.793Z,53663.36
2022-10-18T11:07:08.774Z,53631.29
2022-10-18T11:08:11.860Z,53625.27
2022-10-18T11:09:15.454Z,53641.31
2022-10-18T11:10:18.333Z,53640.31
2022-10-18T11:11:23.181Z,53635.30
2022-10-18T11:12:26.529Z,53638.30
2022-10-18T11:13:30.122Z,53651.33
2022-10-18T11:14:33.621Z,53655.34
2022-10-18T11:15:37.514Z,53635.30
2022-10-18T11:16:41.002Z,53618.26
2022-10-18T11:17:44.440Z,53647.32
2022-10-18T11:18:48.175Z,53642.31
2022-10-18T11:19:51.674Z,53591.20
2022-10-18T11:20:55.364Z,53607.23
2022-10-18T11:21:58.645Z,53606.23
2022-10-18T11:23:02.344Z,53665.36
2022-10-18T11:24:06.006Z,53617.26
2022-10-18T11:25:09.635Z,53608.24
2022-10-18T11:26:13.224Z,53623.27
2022-10-18T11:27:16.511Z,53611.25
2022-10-18T11:28:19.996Z,53631.29
2022-10-18T11:29:23.379Z,53633.29
2022-10-18T11:30:27.694Z,53593.21
2022-10-18T11:31:31.181Z,53627.28
2022-10-18T11:32:35.385Z,53616.25
2022-10-18T11:34:07.209Z,53627.28
2022-10-18T11:34:43.178Z,53596.21
2022-10-18T11:35:47.381Z,53609.24
2022-10-18T11:36:56.154Z,53615.25
2022-10-18T11:37:56.211Z,53606.23
2022-10-18T11:38:59.902Z,53599.22
2022-10-18T11:40:05.134Z,53630.29
2022-10-18T11:41:09.155Z,53612.25
2022-10-18T11:42:12.725Z,53618.26
2022-10-18T11:43:16.274Z,53584.18
2022-10-18T11:44:19.295Z,53632.29
2022-10-18T11:45:23.463Z,53640.31
2022-10-18T11:46:26.880Z,53580.18
2022-10-18T11:47:30.499Z,53628.28
2022-10-18T11:48:34.787Z,53600.22
2022-10-18T11:49:38.498Z,53629.29
2022-10-18T11:50:42.578Z,53585.19
2022-10-18T11:52:03.562Z,53650.33
2022-10-18T11:52:50.605Z,53629.29
2022-10-18T11:53:55.204Z,53619.26
2022-10-18T11:54:58.216Z,53618.26
2022-10-18T11:56:01.674Z,53614.25
2022-10-18T11:57:05.769Z,53629.29
2022-10-18T11:58:09.263Z,53586.19
2022-10-18T11:59:12.753Z,53620.27
2022-10-18T12:00:16.425Z,53604.23
2022-10-18T12:01:22.436Z,53614.25
2022-10-18T12:02:25.417Z,53600.22
2022-10-18T12:03:28.448Z,53597.21
2022-10-18T12:04:32.138Z,53594.21
2022-10-18T12:05:36.250Z,53597.21
2022-10-18T12:06:39.933Z,53612.25
2022-10-18T12:07:43.637Z,53584.18
2022-10-18T12:08:46.934Z,53584.18
2022-10-18T12:09:51.221Z,53591.20
2022-10-18T12:11:09.981Z,53579.18
2022-10-18T12:12:00.554Z,53605.23
2022-10-18T12:13:04.241Z,53569.15
2022-10-18T12:14:07.846Z,53564.14
2022-10-18T12:15:11.750Z,53585.19
2022-10-18T12:16:14.916Z,53594.21
2022-10-18T12:17:41.761Z,53596.21
2022-10-18T12:18:24.351Z,53587.19
2022-10-18T12:19:27.657Z,53597.21
2022-10-18T12:20:31.750Z,53602.22
2022-10-18T12:21:35.031Z,53594.21
2022-10-18T12:22:40.667Z,53619.26
2022-10-18T12:23:43.753Z,53621.27
2022-10-18T12:24:47.242Z,53637.30
2022-10-18T12:25:51.034Z,53628.28
2022-10-18T12:26:55.236Z,53635.30
2022-10-18T12:27:58.370Z,53590.20
2022-10-18T12:29:02.493Z,53633.29
2022-10-18T12:30:06.824Z,53636.30
2022-10-18T12:31:11.040Z,53606.23
2022-10-18T12:32:14.220Z,53637.30
2022-10-18T12:33:33.205Z,53619.26
2022-10-18T12:34:22.834Z,53608.24
2022-10-18T12:35:26.126Z,53638.30
2022-10-18T12:36:30.024Z,53617.26
2022-10-18T12:37:33.918Z,53619.26